Time;durP1;ratioP1;P1;durP2;ratioP2;P2;SDS_P1;SDS_P2;PMS_P1;PMS_P2;Temp;Humidity;BMP_temperature;BMP_pressure;BME280_temperature;BME280_humidity;BME280_pressure;Samples;Min_cycle;Max_cycle;Signal;HPM_P1;HPM_P2
2022/04/01 00:00:50;;;;;;;9.50;3.30;;;;;;;;;;6181849;23;20013;-50
2022/04/01 00:03:15;;;;;;;5.95;3.72;;;;;;;;;;6178000;23;20063;-49
2022/04/01 00:05:41;;;;;;;8.48;3.17;;;;;;;;;;6151466;23;20016;-48
2022/04/01 00:08:08;;;;;;;5.60;3.08;;;;;;;;;;6178549;23;20036;-54
2022/04/01 00:10:33;;;;;;;6.63;3.17;;;;;;;;;;6179746;23;20080;-52
2022/04/01 00:12:58;;;;;;;8.95;3.97;;;;;;;;;;6178441;23;20013;-48
2022/04/01 00:15:24;;;;;;;6.22;3.40;;;;;;;;;;6179499;23;20017;-49
2022/04/01 00:17:49;;;;;;;5.03;3.17;;;;;;;;;;6177765;23;20025;-48
2022/04/01 00:20:14;;;;;;;5.07;3.05;;;;;;;;;;6179192;23;20063;-51
2022/04/01 00:22:40;;;;;;;6.40;3.38;;;;;;;;;;6200915;23;20017;-50
2022/04/01 00:25:06;;;;;;;4.55;3.30;;;;;;;;;;6180448;23;20009;-50
2022/04/01 00:27:32;;;;;;;5.47;3.70;;;;;;;;;;6177610;23;20005;-49
2022/04/01 00:29:57;;;;;;;9.38;3.63;;;;;;;;;;6179360;23;20025;-50
2022/04/01 00:32:22;;;;;;;4.28;2.60;;;;;;;;;;6177563;23;20117;-50
2022/04/01 00:34:49;;;;;;;4.03;3.08;;;;;;;;;;6178884;23;20076;-51
2022/04/01 00:37:14;;;;;;;10.50;3.58;;;;;;;;;;6176803;23;20025;-50
2022/04/01 00:39:40;;;;;;;10.15;3.45;;;;;;;;;;6179480;23;20009;-51
2022/04/01 00:42:05;;;;;;;12.95;3.50;;;;;;;;;;6177371;23;20402;-49
2022/04/01 00:44:33;;;;;;;7.47;3.47;;;;;;;;;;6178930;23;20033;-49
2022/04/01 00:46:59;;;;;;;6.68;2.90;;;;;;;;;;6177458;23;20694;-48
2022/04/01 00:49:26;;;;;;;7.43;3.17;;;;;;;;;;6179123;23;20021;-48
2022/04/01 00:51:53;;;;;;;8.90;2.63;;;;;;;;;;6177331;23;20066;-50
2022/04/01 00:54:18;;;;;;;7.45;3.03;;;;;;;;;;6176473;23;20023;-49
2022/04/01 00:56:44;;;;;;;10.20;2.50;;;;;;;;;;6176732;23;20040;-51
2022/04/01 00:59:10;;;;;;;7.65;4.32;;;;;;;;;;6178581;23;20089;-50
2022/04/01 01:01:36;;;;;;;2.53;2.08;;;;;;;;;;6175140;23;20452;-50
2022/04/01 01:04:02;;;;;;;7.95;2.28;;;;;;;;;;6178521;23;20028;-50
2022/04/01 01:06:29;;;;;;;4.10;2.63;;;;;;;;;;6177035;23;20021;-50
2022/04/01 01:08:56;;;;;;;4.53;2.30;;;;;;;;;;6179024;23;20482;-49
2022/04/01 01:11:21;;;;;;;6.05;2.67;;;;;;;;;;6177700;23;20506;-50
2022/04/01 01:13:47;;;;;;;4.65;2.55;;;;;;;;;;6178633;23;20452;-49
2022/04/01 01:16:12;;;;;;;3.92;2.58;;;;;;;;;;6177314;23;20021;-51
2022/04/01 01:18:37;;;;;;;5.45;2.67;;;;;;;;;;6178354;23;20013;-53
2022/04/01 01:21:03;;;;;;;5.80;2.72;;;;;;;;;;6177699;23;20013;-51
2022/04/01 01:23:31;;;;;;;2.35;2.10;;;;;;;;;;6178047;23;20097;-52
2022/04/01 01:25:57;;;;;;;5.30;2.15;;;;;;;;;;6177494;23;20028;-50
2022/04/01 01:28:23;;;;;;;6.03;2.17;;;;;;;;;;6179216;23;20009;-51
2022/04/01 01:30:48;;;;;;;7.75;2.83;;;;;;;;;;6176290;23;20019;-52
2022/04/01 01:33:14;;;;;;;3.00;2.00;;;;;;;;;;6178492;23;20072;-49
2022/04/01 01:35:40;;;;;;;5.97;2.50;;;;;;;;;;6176690;23;20024;-54
2022/04/01 01:38:05;;;;;;;3.92;2.45;;;;;;;;;;6179466;23;20016;-52
2022/04/01 01:40:30;;;;;;;3.88;2.13;;;;;;;;;;6176542;23;20017;-51
2022/04/01 01:42:55;;;;;;;8.73;2.83;;;;;;;;;;6176136;23;20352;-52
2022/04/01 01:45:21;;;;;;;4.53;2.22;;;;;;;;;;6150066;23;20028;-50
2022/04/01 01:47:46;;;;;;;4.45;2.92;;;;;;;;;;6178402;23;20028;-51
2022/04/01 01:55:39;;;;;;;8.48;3.75;;;;;;;;;;6177537;23;20016;-51
2022/04/01 01:58:05;;;;;;;3.65;3.05;;;;;;;;;;6176753;23;20021;-51
2022/04/01 02:00:30;;;;;;;7.15;3.05;;;;;;;;;;6176900;23;20013;-52
2022/04/01 02:02:56;;;;;;;4.70;2.35;;;;;;;;;;6169684;23;20013;-53
2022/04/01 02:05:21;;;;;;;5.45;2.40;;;;;;;;;;6177247;23;20028;-53
2022/04/01 02:07:47;;;;;;;4.30;2.78;;;;;;;;;;6176748;23;20052;-48
2022/04/01 02:10:13;;;;;;;6.00;2.97;;;;;;;;;;6199972;23;20013;-51
2022/04/01 02:12:39;;;;;;;5.93;2.85;;;;;;;;;;6176248;23;20009;-51
2022/04/01 02:15:05;;;;;;;6.45;3.30;;;;;;;;;;6179117;23;20017;-49
2022/04/01 02:17:31;;;;;;;6.13;3.35;;;;;;;;;;6174481;23;20035;-52
2022/04/01 02:19:56;;;;;;;4.28;3.00;;;;;;;;;;6177907;23;20005;-49
2022/04/01 02:22:22;;;;;;;5.07;2.53;;;;;;;;;;6170408;23;20104;-52
2022/04/01 02:24:50;;;;;;;5.75;3.53;;;;;;;;;;6178129;23;20044;-52
2022/04/01 02:27:17;;;;;;;7.90;2.88;;;;;;;;;;6177359;23;20044;-47
2022/04/01 02:29:43;;;;;;;8.38;3.15;;;;;;;;;;6175673;23;20048;-54
2022/04/01 02:32:08;;;;;;;5.50;3.20;;;;;;;;;;6178096;23;20075;-50
2022/04/01 02:34:33;;;;;;;4.75;2.45;;;;;;;;;;6175808;23;20040;-52
2022/04/01 02:36:59;;;;;;;4.97;3.08;;;;;;;;;;6178051;23;20024;-53
2022/04/01 02:39:24;;;;;;;7.50;3.40;;;;;;;;;;6176013;23;20069;-51
2022/04/01 02:41:50;;;;;;;5.70;3.85;;;;;;;;;;6178700;23;20017;-50
2022/04/01 02:44:15;;;;;;;11.85;2.80;;;;;;;;;;6175518;23;20017;-50
2022/04/01 02:46:43;;;;;;;10.82;3.67;;;;;;;;;;6177866;23;20025;-49
2022/04/01 02:49:09;;;;;;;7.32;4.55;;;;;;;;;;6175573;23;20027;-51
2022/04/01 02:51:36;;;;;;;3.72;2.45;;;;;;;;;;6177994;23;20009;-50
2022/04/01 02:54:03;;;;;;;4.43;3.08;;;;;;;;;;6175992;23;20028;-49
2022/04/01 02:56:29;;;;;;;6.78;4.55;;;;;;;;;;6177423;23;20025;-51
2022/04/01 02:58:54;;;;;;;4.32;3.03;;;;;;;;;;6178376;23;20084;-48
2022/04/01 03:01:20;;;;;;;5.68;3.75;;;;;;;;;;6176491;23;20100;-52
2022/04/01 03:03:46;;;;;;;7.88;3.22;;;;;;;;;;6201285;23;20060;-49
2022/04/01 03:06:12;;;;;;;7.97;3.58;;;;;;;;;;6176915;23;20017;-50
2022/04/01 03:08:40;;;;;;;8.35;3.00;;;;;;;;;;6177527;23;20028;-53
2022/04/01 03:11:06;;;;;;;4.35;2.95;;;;;;;;;;6177300;23;20091;-49
2022/04/01 03:13:31;;;;;;;12.82;3.63;;;;;;;;;;6175974;23;20463;-50
2022/04/01 03:15:56;;;;;;;6.75;3.83;;;;;;;;;;6200890;23;20023;-50
2022/04/01 03:18:22;;;;;;;10.75;3.80;;;;;;;;;;6177372;23;20115;-52
2022/04/01 03:20:47;;;;;;;5.57;2.70;;;;;;;;;;6177596;23;20017;-52
2022/04/01 03:23:12;;;;;;;5.68;3.83;;;;;;;;;;6175986;23;20032;-48
2022/04/01 03:25:37;;;;;;;7.68;3.38;;;;;;;;;;6177183;23;20009;-51
2022/04/01 03:28:03;;;;;;;3.83;3.13;;;;;;;;;;6175878;23;20013;-52
2022/04/01 03:30:29;;;;;;;5.70;2.88;;;;;;;;;;6176158;23;20017;-48
2022/04/01 03:32:54;;;;;;;4.25;2.35;;;;;;;;;;6178497;23;20028;-49
2022/04/01 03:35:20;;;;;;;7.35;4.05;;;;;;;;;;6176505;23;20035;-51
2022/04/01 03:37:45;;;;;;;4.55;3.25;;;;;;;;;;6178059;23;20028;-50
2022/04/01 03:40:14;;;;;;;10.43;3.28;;;;;;;;;;6178287;23;20067;-48
2022/04/01 03:42:40;;;;;;;4.15;2.72;;;;;;;;;;6152726;23;20493;-48
2022/04/01 03:45:06;;;;;;;9.77;5.25;;;;;;;;;;6178745;23;20072;-50
2022/04/01 03:47:41;;;;;;;9.45;3.85;;;;;;;;;;6178758;23;20021;-50
2022/04/01 03:50:08;;;;;;;14.75;5.95;;;;;;;;;;6177200;23;20013;-49
2022/04/01 03:52:34;;;;;;;5.13;2.88;;;;;;;;;;6178798;23;20009;-48
2022/04/01 03:55:06;;;;;;;5.93;2.78;;;;;;;;;;6179149;23;20063;-50
2022/04/01 03:57:35;;;;;;;4.85;2.92;;;;;;;;;;6176850;23;20104;-50
2022/04/01 04:00:00;;;;;;;4.88;3.15;;;;;;;;;;6177466;23;20043;-52
2022/04/01 04:02:26;;;;;;;9.55;3.67;;;;;;;;;;6175028;23;20028;-51
2022/04/01 04:04:54;;;;;;;5.32;3.20;;;;;;;;;;6177289;23;20376;-48
2022/04/01 04:07:19;;;;;;;6.00;2.85;;;;;;;;;;6175765;23;20798;-50
2022/04/01 04:09:45;;;;;;;4.50;3.13;;;;;;;;;;6176145;23;20021;-50
2022/04/01 04:12:13;;;;;;;5.80;3.60;;;;;;;;;;6175271;23;20069;-51
2022/04/01 04:14:42;;;;;;;9.80;3.65;;;;;;;;;;6176741;23;20016;-50
2022/04/01 04:17:11;;;;;;;9.65;3.67;;;;;;;;;;6175257;23;20025;-50
2022/04/01 04:19:59;;;;;;;5.65;3.50;;;;;;;;;;6176588;23;20013;-50
2022/04/01 04:22:34;;;;;;;5.78;3.38;;;;;;;;;;6173659;23;20013;-49
2022/04/01 04:25:04;;;;;;;9.02;4.50;;;;;;;;;;6175291;23;20589;-47
2022/04/01 04:27:29;;;;;;;8.18;3.17;;;;;;;;;;6176526;23;20013;-48
2022/04/01 04:30:22;;;;;;;4.03;2.78;;;;;;;;;;6175043;23;20021;-51
2022/04/01 04:33:01;;;;;;;4.53;2.95;;;;;;;;;;6171224;23;20013;-52
2022/04/01 04:35:28;;;;;;;6.68;3.60;;;;;;;;;;6175354;23;20040;-48
2022/04/01 04:37:54;;;;;;;8.82;5.05;;;;;;;;;;6149988;23;20829;-50
2022/04/01 04:40:21;;;;;;;6.53;3.13;;;;;;;;;;6174766;23;20036;-50
2022/04/01 04:42:50;;;;;;;8.02;4.15;;;;;;;;;;6178921;23;20020;-48
2022/04/01 04:45:19;;;;;;;8.95;3.67;;;;;;;;;;6177922;23;20029;-49
2022/04/01 04:47:45;;;;;;;12.60;4.53;;;;;;;;;;6179297;23;20017;-49
2022/04/01 04:50:11;;;;;;;7.20;2.88;;;;;;;;;;6175957;23;20549;-53
2022/04/01 04:52:38;;;;;;;4.15;3.03;;;;;;;;;;6177868;23;20005;-49
2022/04/01 04:55:07;;;;;;;7.93;3.58;;;;;;;;;;6179223;23;20013;-49
2022/04/01 04:57:32;;;;;;;6.70;3.75;;;;;;;;;;6177018;23;20021;-51
2022/04/01 04:59:58;;;;;;;8.73;3.45;;;;;;;;;;6179818;23;20044;-47
2022/04/01 05:02:26;;;;;;;15.07;5.97;;;;;;;;;;6176862;23;20009;-50
2022/04/01 05:04:51;;;;;;;4.40;2.80;;;;;;;;;;6179542;23;20017;-49
2022/04/01 05:07:29;;;;;;;6.60;3.15;;;;;;;;;;6176914;23;20013;-49
2022/04/01 05:10:01;;;;;;;9.00;3.30;;;;;;;;;;6179625;23;20039;-54
2022/04/01 05:12:34;;;;;;;6.97;3.50;;;;;;;;;;6176977;23;20017;-51
2022/04/01 05:14:59;;;;;;;6.75;3.17;;;;;;;;;;6178999;23;20013;-52
2022/04/01 05:17:24;;;;;;;11.30;4.22;;;;;;;;;;6175680;23;20402;-52
2022/04/01 05:19:56;;;;;;;9.65;3.55;;;;;;;;;;6179009;23;20028;-53
2022/04/01 05:22:23;;;;;;;12.10;3.45;;;;;;;;;;6175305;23;20021;-51
2022/04/01 05:24:50;;;;;;;6.63;3.63;;;;;;;;;;6179815;23;20013;-51
2022/04/01 05:27:15;;;;;;;4.78;3.25;;;;;;;;;;6175387;23;20013;-49
2022/04/01 05:29:42;;;;;;;6.07;3.70;;;;;;;;;;6179518;23;20005;-54
2022/04/01 05:32:10;;;;;;;6.63;3.65;;;;;;;;;;6176167;23;20325;-52
2022/04/01 05:34:35;;;;;;;5.15;3.50;;;;;;;;;;6179393;23;20350;-51
2022/04/01 05:37:01;;;;;;;8.20;3.83;;;;;;;;;;6177545;23;20051;-51
2022/04/01 05:39:28;;;;;;;12.10;4.72;;;;;;;;;;6178576;23;20013;-51
2022/04/01 05:41:53;;;;;;;14.52;3.35;;;;;;;;;;6177723;23;20009;-50
2022/04/01 05:44:19;;;;;;;6.95;3.55;;;;;;;;;;6176551;23;20037;-52
2022/04/01 05:46:45;;;;;;;7.47;3.30;;;;;;;;;;6177846;23;20032;-52
2022/04/01 05:49:12;;;;;;;10.55;2.95;;;;;;;;;;6177659;23;20024;-52
2022/04/01 05:51:37;;;;;;;5.07;3.65;;;;;;;;;;6178060;23;20024;-48
2022/04/01 05:54:03;;;;;;;4.88;3.20;;;;;;;;;;6177330;23;20088;-54
2022/04/01 05:56:31;;;;;;;6.82;3.47;;;;;;;;;;6177500;23;20021;-51
2022/04/01 05:58:57;;;;;;;11.85;3.50;;;;;;;;;;6178235;23;20017;-50
2022/04/01 06:01:32;;;;;;;4.05;3.00;;;;;;;;;;6176632;23;20057;-53
2022/04/01 06:03:59;;;;;;;5.35;3.15;;;;;;;;;;6177999;23;20032;-51
2022/04/01 06:06:41;;;;;;;9.23;3.40;;;;;;;;;;6176828;23;20013;-49
2022/04/01 06:09:24;;;;;;;5.28;3.35;;;;;;;;;;6177050;23;20031;-49
2022/04/01 06:12:00;;;;;;;7.97;3.22;;;;;;;;;;6179223;23;20436;-52
2022/04/01 06:14:33;;;;;;;5.38;3.58;;;;;;;;;;6174922;23;20506;-48
2022/04/01 06:17:04;;;;;;;6.05;3.25;;;;;;;;;;6176015;23;20051;-50
2022/04/01 06:19:45;;;;;;;8.77;3.35;;;;;;;;;;6177132;23;20048;-53
2022/04/01 06:22:20;;;;;;;6.78;3.15;;;;;;;;;;6174909;23;20020;-50
2022/04/01 06:24:46;;;;;;;5.03;2.83;;;;;;;;;;6151427;23;20120;-49
2022/04/01 06:27:11;;;;;;;5.88;3.58;;;;;;;;;;6176081;23;20016;-49
2022/04/01 06:29:38;;;;;;;11.57;4.82;;;;;;;;;;6177445;23;20012;-53
2022/04/01 06:32:05;;;;;;;3.15;2.20;;;;;;;;;;6170577;23;20017;-50
2022/04/01 06:35:00;;;;;;;6.30;3.65;;;;;;;;;;6171638;23;20009;-51
2022/04/01 06:37:28;;;;;;;6.53;3.50;;;;;;;;;;6154177;23;20044;-52
2022/04/01 06:40:00;;;;;;;14.00;2.97;;;;;;;;;;6179652;23;20024;-53
2022/04/01 06:42:26;;;;;;;5.20;3.30;;;;;;;;;;6173998;23;20016;-51
2022/04/01 06:44:52;;;;;;;7.55;3.47;;;;;;;;;;6178164;23;20021;-51
2022/04/01 06:47:17;;;;;;;5.85;2.38;;;;;;;;;;6198844;23;20024;-52
2022/04/01 06:49:42;;;;;;;4.95;3.42;;;;;;;;;;6169958;23;20017;-50
2022/04/01 06:52:08;;;;;;;4.65;3.72;;;;;;;;;;6164169;23;20056;-50
2022/04/01 06:54:34;;;;;;;8.45;3.65;;;;;;;;;;6168374;23;20013;-54
2022/04/01 06:57:00;;;;;;;6.10;3.38;;;;;;;;;;6175097;23;20025;-50
2022/04/01 06:59:25;;;;;;;6.82;3.00;;;;;;;;;;6177038;23;20312;-50
2022/04/01 07:01:51;;;;;;;8.82;4.03;;;;;;;;;;6174949;23;20076;-50
2022/04/01 07:04:16;;;;;;;8.00;3.47;;;;;;;;;;6176947;23;20039;-52
2022/04/01 07:06:41;;;;;;;7.10;3.85;;;;;;;;;;6175577;23;20056;-50
2022/04/01 07:09:06;;;;;;;6.07;2.83;;;;;;;;;;6177218;23;20024;-52
2022/04/01 07:11:32;;;;;;;9.68;3.15;;;;;;;;;;6176608;23;20015;-52
2022/04/01 07:13:57;;;;;;;6.20;2.55;;;;;;;;;;6199983;23;20017;-54
2022/04/01 07:16:23;;;;;;;6.13;2.97;;;;;;;;;;6178509;23;20032;-53
2022/04/01 07:18:48;;;;;;;4.65;3.13;;;;;;;;;;6179431;23;20013;-53
2022/04/01 07:21:13;;;;;;;5.05;3.00;;;;;;;;;;6179141;23;20027;-51
2022/04/01 07:23:39;;;;;;;5.03;2.88;;;;;;;;;;6179043;23;20040;-53
2022/04/01 07:26:04;;;;;;;6.13;3.53;;;;;;;;;;6178647;23;20540;-51
2022/04/01 07:28:30;;;;;;;3.78;2.63;;;;;;;;;;6176871;23;20013;-52
2022/04/01 07:30:55;;;;;;;5.60;2.67;;;;;;;;;;6179404;23;20036;-55
2022/04/01 07:33:21;;;;;;;3.58;2.58;;;;;;;;;;6200519;23;20005;-51
2022/04/01 07:35:49;;;;;;;11.18;2.85;;;;;;;;;;6175913;23;20436;-53
2022/04/01 07:38:15;;;;;;;6.53;2.80;;;;;;;;;;6165287;23;20463;-52
2022/04/01 07:40:42;;;;;;;5.10;2.58;;;;;;;;;;6179764;23;20036;-50
2022/04/01 07:43:07;;;;;;;8.38;2.90;;;;;;;;;;6172766;23;20013;-49
2022/04/01 07:45:37;;;;;;;6.03;2.65;;;;;;;;;;6175150;23;20043;-51
2022/04/01 07:48:02;;;;;;;7.05;2.45;;;;;;;;;;6174862;23;20016;-48
2022/04/01 07:50:27;;;;;;;5.07;2.13;;;;;;;;;;6175337;23;20021;-48
2022/04/01 07:52:53;;;;;;;8.15;2.40;;;;;;;;;;6174913;23;20043;-49
2022/04/01 07:55:19;;;;;;;4.25;2.60;;;;;;;;;;6173585;23;20414;-52
2022/04/01 07:57:45;;;;;;;5.15;3.13;;;;;;;;;;6198845;23;20570;-53
2022/04/01 08:00:11;;;;;;;3.97;2.47;;;;;;;;;;6174890;23;20017;-53
2022/04/01 08:02:36;;;;;;;7.07;2.42;;;;;;;;;;6173760;23;20009;-53
2022/04/01 08:05:02;;;;;;;6.82;3.00;;;;;;;;;;6199268;23;20090;-53
2022/04/01 08:07:27;;;;;;;3.75;2.97;;;;;;;;;;6169207;23;20017;-49
2022/04/01 08:09:53;;;;;;;5.38;2.70;;;;;;;;;;6173516;23;20100;-53
2022/04/01 08:12:18;;;;;;;3.60;2.58;;;;;;;;;;6170432;23;20017;-52
2022/04/01 08:14:43;;;;;;;8.20;2.58;;;;;;;;;;6175107;23;20017;-52
2022/04/01 08:17:12;;;;;;;4.20;2.35;;;;;;;;;;6176084;23;20036;-52
2022/04/01 08:19:38;;;;;;;3.97;2.78;;;;;;;;;;6175482;23;20013;-49
2022/04/01 08:22:04;;;;;;;3.80;2.42;;;;;;;;;;6177584;23;20021;-53
2022/04/01 08:24:29;;;;;;;3.92;2.80;;;;;;;;;;6176186;23;20040;-51
2022/04/01 08:26:56;;;;;;;6.15;2.63;;;;;;;;;;6178339;23;20013;-53
2022/04/01 08:29:22;;;;;;;5.82;2.42;;;;;;;;;;6175207;23;20040;-52
2022/04/01 08:31:47;;;;;;;5.07;1.95;;;;;;;;;;6178113;23;20851;-52
2022/04/01 08:34:13;;;;;;;5.55;2.25;;;;;;;;;;6176447;23;20013;-50
2022/04/01 08:36:38;;;;;;;4.05;2.40;;;;;;;;;;6178524;23;20405;-53
2022/04/01 08:39:04;;;;;;;11.30;3.83;;;;;;;;;;6178797;23;20417;-54
2022/04/01 08:41:29;;;;;;;6.32;2.60;;;;;;;;;;6150624;23;20013;-52
2022/04/01 08:43:54;;;;;;;7.15;2.25;;;;;;;;;;6178739;23;20109;-49
2022/04/01 08:46:21;;;;;;;3.13;2.15;;;;;;;;;;6177016;23;20033;-51
2022/04/01 08:48:46;;;;;;;12.50;2.78;;;;;;;;;;6178301;23;20013;-54
2022/04/01 08:51:13;;;;;;;5.10;2.67;;;;;;;;;;6173290;23;20013;-51
2022/04/01 08:53:39;;;;;;;7.75;2.03;;;;;;;;;;6179801;23;20017;-51
2022/04/01 08:56:05;;;;;;;3.25;1.98;;;;;;;;;;6177425;23;20024;-51
2022/04/01 08:58:31;;;;;;;3.75;2.47;;;;;;;;;;6177146;23;20073;-48
2022/04/01 09:00:57;;;;;;;5.00;2.08;;;;;;;;;;6178362;23;20016;-48
2022/04/01 09:03:22;;;;;;;4.28;2.30;;;;;;;;;;6177664;23;20017;-52
2022/04/01 09:05:52;;;;;;;5.50;2.40;;;;;;;;;;6177889;23;20017;-50
2022/04/01 09:08:22;;;;;;;7.70;2.38;;;;;;;;;;6178027;23;20502;-49
2022/04/01 09:10:49;;;;;;;6.53;2.60;;;;;;;;;;6178134;23;20024;-50
2022/04/01 09:13:15;;;;;;;3.90;1.85;;;;;;;;;;6177130;23;20043;-50
2022/04/01 09:15:41;;;;;;;4.95;2.00;;;;;;;;;;6176371;23;20618;-51
2022/04/01 09:18:06;;;;;;;3.78;2.47;;;;;;;;;;6178206;23;20024;-52
2022/04/01 09:20:41;;;;;;;7.00;3.05;;;;;;;;;;6171181;23;20032;-49
2022/04/01 09:23:06;;;;;;;3.35;1.83;;;;;;;;;;6148731;23;20036;-53
2022/04/01 09:25:32;;;;;;;6.70;2.70;;;;;;;;;;6170880;23;20559;-53
2022/04/01 09:27:58;;;;;;;8.77;2.25;;;;;;;;;;6171605;23;20010;-51
2022/04/01 09:30:26;;;;;;;5.38;1.92;;;;;;;;;;6167536;23;20023;-53
2022/04/01 09:32:55;;;;;;;2.17;1.65;;;;;;;;;;6165288;23;20092;-52
2022/04/01 09:35:22;;;;;;;7.82;2.25;;;;;;;;;;6169465;23;20028;-52
2022/04/01 09:37:48;;;;;;;8.85;1.98;;;;;;;;;;6178568;23;20369;-51
2022/04/01 09:40:17;;;;;;;5.90;1.98;;;;;;;;;;6175141;23;20771;-51
2022/04/01 09:42:49;;;;;;;4.05;1.98;;;;;;;;;;6176898;23;20305;-51
2022/04/01 09:45:16;;;;;;;1.88;1.42;;;;;;;;;;6174001;23;20033;-54
2022/04/01 09:47:41;;;;;;;4.70;1.90;;;;;;;;;;6152162;23;20103;-52
2022/04/01 09:50:11;;;;;;;6.32;2.10;;;;;;;;;;6174817;23;20017;-54
2022/04/01 09:52:37;;;;;;;3.92;2.10;;;;;;;;;;6151670;23;20048;-49
2022/04/01 09:55:02;;;;;;;5.90;1.85;;;;;;;;;;6176371;23;20338;-53
2022/04/01 09:57:28;;;;;;;5.63;2.05;;;;;;;;;;6178334;23;20036;-49
2022/04/01 09:59:54;;;;;;;3.17;1.92;;;;;;;;;;6172417;23;20009;-52
2022/04/01 10:02:20;;;;;;;4.60;1.73;;;;;;;;;;6177557;23;20348;-52
2022/04/01 10:04:45;;;;;;;2.95;1.35;;;;;;;;;;6175885;23;20017;-51
2022/04/01 10:07:10;;;;;;;2.15;1.15;;;;;;;;;;6177918;23;20013;-50
2022/04/01 10:09:37;;;;;;;2.08;1.40;;;;;;;;;;6176398;23;20344;-51
2022/04/01 10:12:05;;;;;;;3.78;1.17;;;;;;;;;;6171470;23;20017;-51
2022/04/01 10:14:31;;;;;;;5.30;1.38;;;;;;;;;;6176948;23;20009;-52
2022/04/01 10:16:59;;;;;;;7.97;1.02;;;;;;;;;;6176148;23;20052;-51
2022/04/01 10:19:28;;;;;;;1.13;0.85;;;;;;;;;;6176126;23;20013;-52
2022/04/01 10:21:53;;;;;;;2.28;1.10;;;;;;;;;;6178180;23;20020;-50
2022/04/01 10:24:31;;;;;;;1.73;0.75;;;;;;;;;;6175864;23;20436;-52
2022/04/01 10:27:09;;;;;;;2.08;1.30;;;;;;;;;;6173775;23;20031;-52
2022/04/01 10:29:35;;;;;;;1.58;1.10;;;;;;;;;;6176984;23;20013;-52
2022/04/01 10:32:21;;;;;;;3.30;1.23;;;;;;;;;;6173897;23;20042;-52
2022/04/01 10:34:47;;;;;;;10.05;1.35;;;;;;;;;;6151652;23;20017;-52
2022/04/01 10:37:13;;;;;;;1.40;1.17;;;;;;;;;;6174281;23;20039;-51
2022/04/01 10:40:00;;;;;;;3.17;1.45;;;;;;;;;;6178293;23;20009;-53
2022/04/01 10:42:28;;;;;;;4.00;1.42;;;;;;;;;;6173614;23;20013;-53
2022/04/01 10:44:54;;;;;;;7.10;1.65;;;;;;;;;;6174294;23;20516;-51
2022/04/01 10:47:21;;;;;;;3.35;1.30;;;;;;;;;;6172596;23;20024;-53
2022/04/01 10:52:31;;;;;;;2.53;1.08;;;;;;;;;;6176084;23;20032;-51
2022/04/01 10:55:02;;;;;;;4.90;1.10;;;;;;;;;;6176718;23;20017;-50
2022/04/01 10:57:29;;;;;;;6.57;1.27;;;;;;;;;;6176222;23;20052;-48
2022/04/01 10:59:58;;;;;;;5.32;1.50;;;;;;;;;;6178434;23;20024;-52
2022/04/01 11:02:23;;;;;;;3.63;1.63;;;;;;;;;;6198633;23;20092;-49
2022/04/01 11:04:51;;;;;;;6.45;1.85;;;;;;;;;;6180090;23;20231;-52
2022/04/01 11:07:22;;;;;;;5.72;1.65;;;;;;;;;;6199440;23;20060;-53
2022/04/01 11:09:51;;;;;;;5.90;1.35;;;;;;;;;;6176747;23;20021;-53
2022/04/01 11:12:20;;;;;;;2.78;1.65;;;;;;;;;;6174768;23;20639;-53
2022/04/01 11:15:08;;;;;;;4.80;1.30;;;;;;;;;;6201016;23;20459;-50
2022/04/01 11:17:33;;;;;;;5.85;1.35;;;;;;;;;;6200360;23;20255;-49
2022/04/01 11:20:09;;;;;;;1.95;1.75;;;;;;;;;;6176970;23;20024;-53
2022/04/01 11:22:39;;;;;;;4.72;1.38;;;;;;;;;;6177333;23;20021;-53
2022/04/01 11:25:05;;;;;;;1.92;1.52;;;;;;;;;;6175945;23;20020;-52
2022/04/01 11:27:30;;;;;;;2.80;2.13;;;;;;;;;;6177047;23;20009;-49
2022/04/01 11:30:15;;;;;;;5.40;1.67;;;;;;;;;;6176355;23;20071;-51
2022/04/01 11:32:44;;;;;;;3.88;1.42;;;;;;;;;;6177141;23;20061;-51
2022/04/01 11:35:10;;;;;;;3.47;1.60;;;;;;;;;;6175890;23;20028;-54
2022/04/01 11:37:37;;;;;;;2.17;1.20;;;;;;;;;;6177551;23;20041;-49
2022/04/01 11:40:12;;;;;;;2.55;1.50;;;;;;;;;;6175489;23;20017;-52
2022/04/01 11:43:02;;;;;;;1.63;1.15;;;;;;;;;;6177422;23;20042;-50
2022/04/01 11:45:33;;;;;;;5.00;1.40;;;;;;;;;;6176727;23;20032;-53
2022/04/01 11:47:59;;;;;;;2.65;1.60;;;;;;;;;;6172710;23;20025;-53
2022/04/01 11:50:24;;;;;;;3.58;1.83;;;;;;;;;;6150298;23;20013;-50
2022/04/01 11:52:52;;;;;;;3.20;1.17;;;;;;;;;;6176267;23;20024;-53
2022/04/01 11:55:18;;;;;;;4.03;1.90;;;;;;;;;;6146130;23;20079;-53
2022/04/01 11:57:43;;;;;;;4.40;1.40;;;;;;;;;;6175929;23;20029;-51
2022/04/01 12:00:13;;;;;;;4.88;1.27;;;;;;;;;;6177053;23;20040;-54
2022/04/01 12:02:38;;;;;;;2.60;1.30;;;;;;;;;;6178018;23;20013;-55
2022/04/01 12:05:04;;;;;;;2.33;1.55;;;;;;;;;;6180052;23;20013;-54
2022/04/01 12:10:31;;;;;;;2.90;1.80;;;;;;;;;;6177843;23;20024;-51
2022/04/01 12:12:58;;;;;;;6.05;1.98;;;;;;;;;;6179114;23;20020;-50
2022/04/01 12:15:30;;;;;;;1.80;1.20;;;;;;;;;;6177362;23;20013;-50
2022/04/01 12:17:55;;;;;;;5.18;1.85;;;;;;;;;;6176589;23;20073;-53
2022/04/01 12:20:21;;;;;;;4.10;1.20;;;;;;;;;;6172537;23;20021;-55
2022/04/01 12:22:46;;;;;;;4.43;1.25;;;;;;;;;;6172814;23;20009;-51
2022/04/01 12:25:11;;;;;;;1.85;1.60;;;;;;;;;;6174038;23;20024;-52
2022/04/01 12:27:59;;;;;;;4.43;1.33;;;;;;;;;;6173073;23;20025;-50
2022/04/01 12:30:32;;;;;;;2.95;1.40;;;;;;;;;;6174149;23;20013;-53
2022/04/01 12:33:01;;;;;;;2.65;0.90;;;;;;;;;;6174306;23;20017;-54
2022/04/01 12:35:27;;;;;;;13.05;1.23;;;;;;;;;;6172893;23;20258;-51
2022/04/01 12:38:09;;;;;;;6.60;2.08;;;;;;;;;;6174540;23;20044;-55
2022/04/01 12:40:44;;;;;;;7.85;1.85;;;;;;;;;;6174403;23;20094;-52
2022/04/01 12:43:29;;;;;;;5.90;1.50;;;;;;;;;;6169781;23;20052;-55
2022/04/01 12:46:01;;;;;;;5.28;1.60;;;;;;;;;;6174764;23;20017;-55
2022/04/01 12:48:28;;;;;;;3.10;1.52;;;;;;;;;;6196880;23;20087;-51
2022/04/01 12:50:56;;;;;;;3.50;1.95;;;;;;;;;;6174392;23;20013;-54
2022/04/01 12:53:21;;;;;;;3.15;1.30;;;;;;;;;;6171889;23;20017;-53
2022/04/01 12:55:46;;;;;;;1.75;1.15;;;;;;;;;;6176736;23;20013;-52
2022/04/01 12:58:14;;;;;;;6.22;1.45;;;;;;;;;;6173404;23;20029;-52
2022/04/01 13:00:39;;;;;;;2.50;1.08;;;;;;;;;;6178213;23;20044;-53
2022/04/01 13:03:05;;;;;;;1.17;1.05;;;;;;;;;;6176451;23;20014;-53
2022/04/01 13:05:30;;;;;;;3.08;1.75;;;;;;;;;;6176337;23;20073;-52
2022/04/01 13:07:55;;;;;;;4.10;1.63;;;;;;;;;;6149750;23;20561;-51
2022/04/01 13:10:23;;;;;;;2.25;1.83;;;;;;;;;;6174046;23;20012;-51
2022/04/01 13:12:51;;;;;;;2.63;1.40;;;;;;;;;;6178744;23;20013;-50
2022/04/01 13:15:18;;;;;;;2.88;1.20;;;;;;;;;;6175507;23;20102;-54
2022/04/01 13:17:44;;;;;;;2.63;1.45;;;;;;;;;;6178406;23;20056;-53
2022/04/01 13:20:11;;;;;;;1.42;1.05;;;;;;;;;;6178915;23;20036;-52
2022/04/01 13:22:37;;;;;;;2.80;1.15;;;;;;;;;;6177412;23;20013;-52
2022/04/01 13:25:03;;;;;;;2.08;0.93;;;;;;;;;;6177107;23;20092;-52
2022/04/01 13:27:28;;;;;;;2.60;1.42;;;;;;;;;;6176323;23;20415;-53
2022/04/01 13:29:54;;;;;;;2.90;1.08;;;;;;;;;;6176892;23;20013;-52
2022/04/01 13:32:20;;;;;;;3.95;1.38;;;;;;;;;;6176740;23;20013;-50
2022/04/01 13:34:45;;;;;;;3.15;1.25;;;;;;;;;;6180204;23;20017;-53
2022/04/01 13:37:11;;;;;;;4.05;1.95;;;;;;;;;;6176998;23;20013;-54
2022/04/01 13:39:36;;;;;;;2.15;1.77;;;;;;;;;;6152816;23;20013;-49
2022/04/01 13:42:03;;;;;;;2.55;1.80;;;;;;;;;;6169158;23;20036;-51
2022/04/01 13:44:28;;;;;;;3.65;2.15;;;;;;;;;;6178248;23;20739;-53
2022/04/01 13:46:54;;;;;;;4.03;1.75;;;;;;;;;;6178047;23;20036;-52
2022/04/01 13:49:19;;;;;;;1.60;1.27;;;;;;;;;;6177322;23;20013;-52
2022/04/01 13:51:45;;;;;;;2.03;1.13;;;;;;;;;;6176412;23;20075;-54
2022/04/01 13:54:10;;;;;;;2.42;1.25;;;;;;;;;;6178042;23;20008;-50
2022/04/01 13:56:36;;;;;;;2.78;1.42;;;;;;;;;;6176756;23;20021;-47
2022/04/01 13:59:01;;;;;;;3.35;1.63;;;;;;;;;;6162475;23;20033;-51
2022/04/01 14:01:27;;;;;;;6.18;1.42;;;;;;;;;;6177094;23;20028;-54
2022/04/01 14:03:53;;;;;;;3.75;1.52;;;;;;;;;;6175911;23;20013;-51
2022/04/01 14:06:19;;;;;;;4.18;1.08;;;;;;;;;;6198469;23;20071;-51
2022/04/01 14:08:44;;;;;;;12.13;1.65;;;;;;;;;;6176833;23;20017;-50
2022/04/01 14:11:09;;;;;;;2.35;1.30;;;;;;;;;;6177027;23;20072;-52
2022/04/01 14:13:35;;;;;;;2.08;1.25;;;;;;;;;;6175645;23;20258;-51
2022/04/01 14:16:00;;;;;;;3.08;1.50;;;;;;;;;;6177842;23;20069;-53
2022/04/01 14:18:25;;;;;;;3.72;2.13;;;;;;;;;;6174281;23;20024;-54
2022/04/01 14:20:52;;;;;;;8.23;1.48;;;;;;;;;;6152561;23;20012;-51
2022/04/01 14:23:18;;;;;;;3.67;1.50;;;;;;;;;;6173221;23;20017;-52
2022/04/01 14:25:44;;;;;;;2.20;1.40;;;;;;;;;;6178507;23;20070;-52
2022/04/01 14:28:10;;;;;;;1.77;1.10;;;;;;;;;;6174333;23;20020;-53
2022/04/01 14:30:35;;;;;;;2.28;1.55;;;;;;;;;;6176852;23;20005;-50
2022/04/01 14:33:00;;;;;;;4.85;1.70;;;;;;;;;;6177131;23;20017;-54
2022/04/01 14:35:27;;;;;;;2.58;1.58;;;;;;;;;;6175680;23;20017;-54
2022/04/01 14:37:52;;;;;;;3.58;1.13;;;;;;;;;;6177717;23;20048;-53
2022/04/01 14:40:18;;;;;;;1.23;1.10;;;;;;;;;;6174962;23;20013;-51
2022/04/01 14:42:43;;;;;;;2.60;1.33;;;;;;;;;;6178111;23;20029;-52
2022/04/01 14:45:09;;;;;;;2.88;1.30;;;;;;;;;;6167828;23;20033;-51
2022/04/01 14:47:34;;;;;;;3.55;1.08;;;;;;;;;;6175923;23;20040;-52
2022/04/01 14:50:00;;;;;;;3.05;1.02;;;;;;;;;;6175326;23;20120;-53
2022/04/01 14:52:26;;;;;;;5.50;1.48;;;;;;;;;;6170536;23;20015;-54
2022/04/01 14:54:52;;;;;;;3.53;1.17;;;;;;;;;;6175540;23;20365;-55